Time;durP1;ratioP1;P1;durP2;ratioP2;P2;SDS_P1;SDS_P2;PMS_P1;PMS_P2;Temp;Humidity;BMP_temperature;BMP_pressure;BME280_temperature;BME280_humidity;BME280_pressure;Samples;Min_cycle;Max_cycle;Signal;HPM_P1;HPM_P2
2023/06/02 00:00:00;;;;;;;1.47;1.37;;;14.90;95.50;;;;;;5053936;28;20453;-74
2023/06/02 00:02:29;;;;;;;2.23;2.03;;;14.90;95.40;;;;;;5053760;28;20475;-73
2023/06/02 00:04:59;;;;;;;0.97;0.97;;;14.80;95.50;;;;;;5053688;28;20416;-74
2023/06/02 00:07:29;;;;;;;1.00;1.00;;;14.70;95.70;;;;;;5053589;28;20399;-73
2023/06/02 00:09:58;;;;;;;3.40;1.60;;;14.60;95.40;;;;;;5053681;28;20480;-74
2023/06/02 00:12:24;;;;;;;1.13;1.13;;;14.60;95.60;;;;;;5053680;28;20403;-73
2023/06/02 00:14:50;;;;;;;1.07;0.70;;;14.60;96.00;;;;;;5053368;28;20996;-73
2023/06/02 00:17:18;;;;;;;1.17;1.17;;;14.60;96.00;;;;;;5053341;28;20572;-73
2023/06/02 00:19:45;;;;;;;2.10;2.00;;;14.60;95.80;;;;;;5053637;28;20172;-73
2023/06/02 00:22:13;;;;;;;1.37;1.13;;;14.60;95.70;;;;;;5053519;28;20407;-74
2023/06/02 00:24:40;;;;;;;0.47;0.47;;;14.60;95.50;;;;;;5053231;28;20432;-74
2023/06/02 00:27:07;;;;;;;1.03;1.00;;;14.70;95.30;;;;;;5053073;28;20432;-74
2023/06/02 00:29:32;;;;;;;1.13;1.10;;;14.80;95.00;;;;;;5053528;28;20761;-74
2023/06/02 00:31:58;;;;;;;1.17;0.90;;;14.80;95.10;;;;;;5053342;28;20408;-74
2023/06/02 00:34:24;;;;;;;1.43;1.00;;;14.80;95.00;;;;;;5052209;28;20217;-73
2023/06/02 00:36:50;;;;;;;1.57;1.07;;;14.90;94.90;;;;;;5053034;28;20220;-74
2023/06/02 00:39:15;;;;;;;1.13;0.87;;;15.00;95.00;;;;;;5053317;28;20396;-73
2023/06/02 00:41:41;;;;;;;0.60;0.60;;;15.00;95.00;;;;;;5053204;28;20166;-73
2023/06/02 00:44:07;;;;;;;0.40;0.40;;;14.90;94.90;;;;;;5053181;28;20205;-73
2023/06/02 00:46:32;;;;;;;1.13;1.13;;;14.90;94.70;;;;;;5053121;28;20168;-74
2023/06/02 00:48:58;;;;;;;0.83;0.83;;;14.90;94.90;;;;;;5053155;28;20234;-74
2023/06/02 00:51:24;;;;;;;0.70;0.70;;;14.90;94.90;;;;;;5053373;28;20165;-73
2023/06/02 00:53:50;;;;;;;0.40;0.40;;;14.80;94.80;;;;;;5053063;28;21057;-73
2023/06/02 00:56:17;;;;;;;4.37;1.13;;;14.80;95.20;;;;;;5052867;28;20435;-73
2023/06/02 00:58:44;;;;;;;0.70;0.70;;;14.80;94.80;;;;;;5053174;28;20832;-73
2023/06/02 01:01:11;;;;;;;1.10;1.10;;;14.90;94.50;;;;;;5053232;28;20401;-73
2023/06/02 01:03:39;;;;;;;0.63;0.63;;;15.00;94.40;;;;;;5053136;28;20519;-73
2023/06/02 01:06:06;;;;;;;1.13;1.13;;;15.00;94.60;;;;;;5052872;28;20420;-74
2023/06/02 01:08:37;;;;;;;0.90;0.90;;;15.00;94.10;;;;;;5053106;28;20420;-73
2023/06/02 01:11:03;;;;;;;0.83;0.83;;;15.10;94.00;;;;;;5055880;28;20403;-74
2023/06/02 01:13:30;;;;;;;1.03;1.03;;;15.10;94.20;;;;;;5056876;28;20547;-74
2023/06/02 01:15:55;;;;;;;0.77;0.70;;;15.10;94.90;;;;;;5056800;28;20911;-73
2023/06/02 01:18:23;;;;;;;0.63;0.63;;;15.00;94.70;;;;;;5056973;28;20484;-73
2023/06/02 01:20:52;;;;;;;1.50;0.60;;;15.10;94.40;;;;;;5056924;28;20166;-74
2023/06/02 01:23:31;;;;;;;2.43;2.10;;;15.10;94.50;;;;;;5056775;28;20418;-72
2023/06/02 01:25:57;;;;;;;1.43;1.33;;;15.10;94.30;;;;;;5056770;28;20404;-73
2023/06/02 01:28:23;;;;;;;1.03;0.97;;;15.00;94.10;;;;;;5056798;28;20769;-74
2023/06/02 01:31:24;;;;;;;0.50;0.50;;;15.00;94.40;;;;;;5056575;28;20839;-74
2023/06/02 01:34:13;;;;;;;0.60;0.60;;;14.90;94.00;;;;;;5055855;28;20468;-74
2023/06/02 01:36:41;;;;;;;0.57;0.57;;;14.90;94.30;;;;;;5056457;28;20393;-73
2023/06/02 01:39:08;;;;;;;0.63;0.63;;;14.80;93.60;;;;;;5056490;28;20540;-74
2023/06/02 01:41:38;;;;;;;1.00;1.00;;;14.80;93.30;;;;;;5056490;28;20415;-73
2023/06/02 01:44:04;;;;;;;0.97;0.97;;;14.70;93.70;;;;;;5056429;28;20427;-74
2023/06/02 01:46:30;;;;;;;1.10;1.10;;;14.70;93.80;;;;;;5056094;28;21015;-73
2023/06/02 01:48:56;;;;;;;1.27;1.20;;;14.60;93.90;;;;;;5056073;28;20511;-74
2023/06/02 01:51:21;;;;;;;3.03;1.73;;;14.50;94.20;;;;;;5056394;28;20188;-73
2023/06/02 01:53:47;;;;;;;1.47;1.37;;;14.50;94.80;;;;;;5056229;28;20209;-73
2023/06/02 01:56:13;;;;;;;0.83;0.83;;;14.50;94.70;;;;;;5055937;28;20415;-73
2023/06/02 01:58:38;;;;;;;1.20;0.90;;;14.40;94.80;;;;;;5056440;28;20190;-74
2023/06/02 02:01:04;;;;;;;0.93;0.93;;;14.30;95.00;;;;;;5056177;28;20528;-73
2023/06/02 02:03:30;;;;;;;1.17;1.03;;;14.30;95.30;;;;;;5055811;28;20194;-74
2023/06/02 02:05:56;;;;;;;1.27;1.17;;;14.20;94.80;;;;;;5055796;28;20170;-74
2023/06/02 02:08:22;;;;;;;3.63;0.77;;;14.20;95.10;;;;;;5055965;28;20492;-74
2023/06/02 02:10:48;;;;;;;0.77;0.77;;;14.30;95.30;;;;;;5055817;28;20859;-73
2023/06/02 02:13:13;;;;;;;0.90;0.90;;;14.30;94.90;;;;;;5055803;28;20506;-74
2023/06/02 02:15:39;;;;;;;1.17;1.13;;;14.20;95.10;;;;;;5055772;28;20610;-74
2023/06/02 02:18:06;;;;;;;0.50;0.50;;;14.10;95.30;;;;;;5055697;28;20172;-73
2023/06/02 02:20:32;;;;;;;7.50;0.90;;;14.10;95.40;;;;;;5055609;28;20901;-73
2023/06/02 02:22:57;;;;;;;2.03;1.07;;;14.00;99.90;;;;;;5055714;28;20405;-73
2023/06/02 02:25:23;;;;;;;1.07;0.90;;;14.10;95.30;;;;;;5055403;28;20171;-73
2023/06/02 02:27:49;;;;;;;1.27;1.20;;;14.00;95.20;;;;;;5055639;28;20166;-73
2023/06/02 02:30:15;;;;;;;1.27;1.17;;;14.00;95.10;;;;;;5055677;28;20170;-73
2023/06/02 02:32:44;;;;;;;0.90;0.90;;;14.00;95.00;;;;;;5055362;28;20415;-74
2023/06/02 02:35:10;;;;;;;0.93;0.93;;;13.90;95.20;;;;;;5055303;28;20428;-74
2023/06/02 02:37:36;;;;;;;0.80;0.80;;;13.90;95.20;;;;;;5055297;28;20475;-73
2023/06/02 02:40:03;;;;;;;0.40;0.40;;;13.80;95.30;;;;;;5055333;28;20796;-73
2023/06/02 02:42:29;;;;;;;1.87;1.53;;;13.80;95.40;;;;;;5055388;28;20198;-74
2023/06/02 02:44:54;;;;;;;0.60;0.60;;;13.80;95.50;;;;;;5055299;28;20765;-73
2023/06/02 02:47:20;;;;;;;4.83;2.00;;;13.80;95.90;;;;;;5055000;28;20428;-74
2023/06/02 02:49:47;;;;;;;0.90;0.90;;;13.70;96.00;;;;;;5055108;28;20282;-74
2023/06/02 02:52:12;;;;;;;0.83;0.83;;;13.70;96.30;;;;;;5055002;28;20555;-73
2023/06/02 02:54:38;;;;;;;0.70;0.70;;;13.60;96.50;;;;;;5054808;28;20459;-73
2023/06/02 02:57:07;;;;;;;0.90;0.90;;;13.50;96.90;;;;;;5054712;28;20232;-73
2023/06/02 02:59:35;;;;;;;2.10;0.90;;;13.40;97.40;;;;;;5054900;28;20506;-74
2023/06/02 03:02:01;;;;;;;0.93;0.90;;;13.40;97.30;;;;;;5054909;28;20411;-73
2023/06/02 03:04:27;;;;;;;0.80;0.80;;;13.40;97.20;;;;;;5054782;28;20438;-73
2023/06/02 03:06:54;;;;;;;1.77;1.67;;;13.40;97.40;;;;;;5054561;28;20409;-74
2023/06/02 03:09:20;;;;;;;1.20;1.20;;;13.50;97.10;;;;;;5054630;28;20177;-73
2023/06/02 03:11:46;;;;;;;0.57;0.57;;;13.50;97.10;;;;;;5054622;28;20817;-73
2023/06/02 03:14:12;;;;;;;1.53;1.43;;;13.50;96.80;;;;;;5054477;28;20232;-73
2023/06/02 03:16:40;;;;;;;0.80;0.80;;;13.50;97.00;;;;;;5050431;28;20170;-74
2023/06/02 03:19:16;;;;;;;0.73;0.73;;;13.30;97.00;;;;;;5054554;28;20766;-74
2023/06/02 03:21:42;;;;;;;0.77;0.77;;;13.20;97.60;;;;;;5053900;28;20422;-74
2023/06/02 03:24:18;;;;;;;0.93;0.93;;;13.20;98.10;;;;;;5053492;28;20420;-69
2023/06/02 03:26:44;;;;;;;1.60;0.80;;;13.20;98.90;;;;;;5054359;28;20412;-69
2023/06/02 03:29:11;;;;;;;0.70;0.70;;;13.60;99.90;;;;;;5054352;28;20499;-75
2023/06/02 03:31:37;;;;;;;1.53;1.43;;;14.20;99.90;;;;;;5054239;28;20813;-73
2023/06/02 03:34:03;;;;;;;0.97;0.97;;;14.40;96.40;;;;;;5053595;28;20460;-74
2023/06/02 03:36:34;;;;;;;1.03;0.93;;;14.40;96.00;;;;;;5054069;28;20162;-73
2023/06/02 03:39:00;;;;;;;1.47;1.37;;;14.20;95.90;;;;;;5054183;28;20409;-75
2023/06/02 03:41:26;;;;;;;0.57;0.57;;;14.00;95.80;;;;;;5054175;28;20405;-77
2023/06/02 03:43:51;;;;;;;1.63;1.53;;;13.70;96.40;;;;;;5054042;28;20442;-74
2023/06/02 03:46:17;;;;;;;1.17;0.93;;;13.60;96.80;;;;;;5053848;28;20181;-74
2023/06/02 03:48:43;;;;;;;2.20;1.43;;;13.50;97.20;;;;;;5053802;28;20174;-73
2023/06/02 03:51:08;;;;;;;0.87;0.87;;;13.50;97.50;;;;;;5054293;28;20249;-74
2023/06/02 03:53:34;;;;;;;1.73;1.40;;;13.40;97.60;;;;;;5053869;28;20267;-73
2023/06/02 03:56:00;;;;;;;1.37;1.33;;;13.30;97.70;;;;;;5053862;28;20253;-74
2023/06/02 03:58:25;;;;;;;0.93;0.83;;;13.30;97.90;;;;;;5053953;28;20216;-71
2023/06/02 04:00:51;;;;;;;2.07;1.47;;;13.30;98.40;;;;;;5053766;28;20235;-74
2023/06/02 04:03:17;;;;;;;0.80;0.80;;;13.30;98.20;;;;;;5052106;28;20247;-77
2023/06/02 04:05:42;;;;;;;0.90;0.90;;;13.20;98.40;;;;;;5053807;28;20537;-75
2023/06/02 04:08:08;;;;;;;3.70;0.93;;;13.20;98.20;;;;;;5052862;28;20180;-74
2023/06/02 04:10:34;;;;;;;3.07;1.80;;;13.30;98.60;;;;;;5052370;28;20179;-73
2023/06/02 04:12:59;;;;;;;3.00;2.33;;;13.20;99.90;;;;;;5053683;28;20253;-73
2023/06/02 04:15:25;;;;;;;13.27;1.00;;;13.20;98.60;;;;;;5051355;28;20414;-74
2023/06/02 04:17:51;;;;;;;1.13;1.03;;;13.20;98.80;;;;;;5053249;28;20704;-74
2023/06/02 04:20:16;;;;;;;0.97;0.97;;;13.30;98.60;;;;;;5052834;28;20636;-73
2023/06/02 04:22:42;;;;;;;1.43;1.23;;;13.30;98.70;;;;;;5051154;28;20629;-74
2023/06/02 04:25:08;;;;;;;3.13;2.73;;;13.30;98.90;;;;;;5053273;28;20193;-72
2023/06/02 04:27:34;;;;;;;1.10;1.00;;;13.30;99.10;;;;;;5053350;28;20284;-74
2023/06/02 04:30:01;;;;;;;1.07;1.03;;;13.40;99.60;;;;;;5053322;28;20415;-74
2023/06/02 04:32:26;;;;;;;1.37;1.23;;;13.50;99.30;;;;;;5053407;28;20166;-74
2023/06/02 04:34:52;;;;;;;1.33;1.30;;;13.90;99.10;;;;;;5053170;28;21011;-74
2023/06/02 04:37:18;;;;;;;0.87;0.87;;;14.40;98.30;;;;;;5053174;28;20170;-74
2023/06/02 04:39:47;;;;;;;1.53;1.17;;;14.90;97.40;;;;;;5053432;28;20190;-73
2023/06/02 04:42:13;;;;;;;0.90;0.87;;;15.20;96.60;;;;;;5053400;28;20886;-74
2023/06/02 04:44:39;;;;;;;0.70;0.70;;;15.50;95.60;;;;;;5054004;28;20424;-74
2023/06/02 04:47:06;;;;;;;0.77;0.77;;;15.60;94.80;;;;;;5057382;28;20410;-74
2023/06/02 04:49:31;;;;;;;0.40;0.40;;;15.60;95.20;;;;;;5057129;28;20529;-74
2023/06/02 04:51:57;;;;;;;1.00;1.00;;;15.70;94.50;;;;;;5057238;28;20499;-74
2023/06/02 04:54:23;;;;;;;0.63;0.63;;;15.80;94.20;;;;;;5057129;28;20268;-72
2023/06/02 04:56:49;;;;;;;1.03;0.93;;;15.90;94.40;;;;;;5056933;28;20170;-73
2023/06/02 04:59:15;;;;;;;1.57;1.47;;;16.00;94.80;;;;;;5057309;28;20253;-73
2023/06/02 05:01:41;;;;;;;1.23;0.80;;;16.30;94.70;;;;;;5057134;28;20445;-74
2023/06/02 05:04:06;;;;;;;0.50;0.50;;;16.60;93.30;;;;;;5057039;28;20813;-75
2023/06/02 05:06:32;;;;;;;1.57;1.47;;;17.00;92.30;;;;;;5056858;28;20173;-72
2023/06/02 05:08:58;;;;;;;1.00;0.80;;;17.70;92.10;;;;;;5057004;28;20182;-75
2023/06/02 05:11:23;;;;;;;1.03;0.93;;;18.50;91.00;;;;;;5055801;28;20209;-77
2023/06/02 05:13:49;;;;;;;1.83;1.30;;;18.60;88.20;;;;;;5056885;28;20203;-75
2023/06/02 05:16:15;;;;;;;2.10;0.80;;;18.40;89.30;;;;;;5056808;28;20174;-77
2023/06/02 05:18:41;;;;;;;1.23;1.13;;;18.40;89.90;;;;;;5056891;28;20166;-76
2023/06/02 05:21:06;;;;;;;1.87;1.77;;;18.30;89.10;;;;;;5056730;28;20168;-76
2023/06/02 05:23:32;;;;;;;1.20;1.20;;;18.30;89.90;;;;;;5056758;28;20483;-75
2023/06/02 05:25:58;;;;;;;1.33;1.00;;;18.20;90.20;;;;;;5055221;28;20185;-74
2023/06/02 05:28:23;;;;;;;0.60;0.60;;;18.20;90.50;;;;;;5056807;28;20180;-74
2023/06/02 05:30:49;;;;;;;1.37;1.20;;;18.20;91.20;;;;;;5056638;28;20228;-74
2023/06/02 05:33:14;;;;;;;0.67;0.67;;;18.20;90.10;;;;;;5056430;28;20197;-73
2023/06/02 05:35:40;;;;;;;0.87;0.87;;;18.10;90.10;;;;;;5056293;28;20169;-75
2023/06/02 05:38:06;;;;;;;1.03;1.03;;;18.10;91.00;;;;;;5056463;28;20173;-73
2023/06/02 05:40:31;;;;;;;0.50;0.50;;;18.00;96.60;;;;;;5047520;28;20181;-72
2023/06/02 05:42:57;;;;;;;1.10;1.10;;;18.20;90.90;;;;;;5046970;28;20199;-74
2023/06/02 05:45:22;;;;;;;1.50;1.40;;;18.60;97.40;;;;;;5046661;28;20654;-76
2023/06/02 05:47:48;;;;;;;0.60;0.60;;;18.40;91.10;;;;;;5054273;28;20162;-72
2023/06/02 05:50:14;;;;;;;1.07;0.93;;;18.50;91.30;;;;;;5056168;28;20177;-75
2023/06/02 05:52:40;;;;;;;0.60;0.60;;;18.70;91.60;;;;;;5056049;28;20403;-75
2023/06/02 05:55:06;;;;;;;0.93;0.93;;;18.80;90.60;;;;;;5055827;28;20463;-73
2023/06/02 05:57:32;;;;;;;1.07;1.07;;;19.00;90.70;;;;;;5055710;28;20396;-75
2023/06/02 05:59:58;;;;;;;1.60;1.50;;;19.10;90.80;;;;;;5055999;28;20504;-76
2023/06/02 06:02:23;;;;;;;1.70;1.20;;;19.30;90.80;;;;;;5056059;28;20510;-73
2023/06/02 06:04:49;;;;;;;1.10;1.10;;;19.40;90.50;;;;;;5055824;28;20251;-74
2023/06/02 06:07:15;;;;;;;0.70;0.70;;;19.60;90.30;;;;;;5055667;28;20175;-73
2023/06/02 06:09:40;;;;;;;0.43;0.43;;;20.10;89.90;;;;;;5055803;28;20668;-75
2023/06/02 06:12:07;;;;;;;1.23;0.97;;;21.20;88.60;;;;;;5056002;28;20627;-74
2023/06/02 06:14:32;;;;;;;0.63;0.63;;;23.10;84.10;;;;;;5055567;28;20233;-75
2023/06/02 06:16:58;;;;;;;0.70;0.70;;;25.10;79.10;;;;;;5055632;28;20451;-74
2023/06/02 06:19:23;;;;;;;1.30;1.00;;;27.00;70.60;;;;;;5055837;28;20203;-75
2023/06/02 06:21:49;;;;;;;1.87;0.80;;;28.70;62.40;;;;;;5055599;28;20170;-75
2023/06/02 06:24:15;;;;;;;2.40;1.23;;;30.20;57.60;;;;;;5055546;28;20221;-74
2023/06/02 06:26:41;;;;;;;0.70;0.70;;;31.40;50.70;;;;;;5055503;28;20166;-75
2023/06/02 06:29:06;;;;;;;1.30;1.20;;;32.40;48.30;;;;;;5055906;28;20245;-74
2023/06/02 06:31:32;;;;;;;1.13;0.80;;;33.40;45.90;;;;;;5054820;28;20428;-76
2023/06/02 06:33:59;;;;;;;1.00;0.90;;;34.20;45.10;;;;;;5053370;28;20194;-75
2023/06/02 06:36:24;;;;;;;0.70;0.70;;;35.10;43.80;;;;;;5054630;28;20177;-76
2023/06/02 06:38:50;;;;;;;1.50;1.30;;;35.60;42.10;;;;;;5054110;28;20888;-75
2023/06/02 06:41:17;;;;;;;0.97;0.97;;;36.10;41.00;;;;;;5055432;28;20227;-76
2023/06/02 06:43:43;;;;;;;1.20;1.10;;;36.20;38.40;;;;;;5055064;28;20182;-75
2023/06/02 06:46:09;;;;;;;2.33;1.00;;;36.00;39.60;;;;;;5055020;28;20428;-75
2023/06/02 06:48:34;;;;;;;0.87;0.80;;;35.30;38.70;;;;;;5055195;28;20178;-76
2023/06/02 06:51:00;;;;;;;0.70;0.70;;;34.60;38.70;;;;;;5055109;28;20170;-74
2023/06/02 06:53:27;;;;;;;1.33;1.10;;;33.80;40.00;;;;;;5054973;28;20689;-74
2023/06/02 06:55:53;;;;;;;0.60;0.60;;;33.30;41.30;;;;;;5055209;28;20170;-76
2023/06/02 06:58:19;;;;;;;0.90;0.90;;;33.40;41.30;;;;;;5054967;28;20414;-74
2023/06/02 07:00:45;;;;;;;0.70;0.70;;;33.70;41.60;;;;;;5054966;28;20249;-76
2023/06/02 07:03:11;;;;;;;0.70;0.70;;;33.70;41.80;;;;;;5054874;28;20829;-76
2023/06/02 07:05:37;;;;;;;0.67;0.67;;;33.30;40.90;;;;;;5054625;28;20166;-76
2023/06/02 07:08:02;;;;;;;1.40;0.97;;;32.70;39.80;;;;;;5054000;28;20562;-76
2023/06/02 07:10:28;;;;;;;0.53;0.53;;;32.20;40.60;;;;;;5054705;28;20618;-76
2023/06/02 07:12:53;;;;;;;0.97;0.97;;;31.70;45.80;;;;;;5054620;28;20641;-76
2023/06/02 07:15:19;;;;;;;1.00;1.00;;;31.50;44.20;;;;;;5054573;28;20198;-76
2023/06/02 07:17:45;;;;;;;1.00;1.00;;;31.10;45.60;;;;;;5054658;28;20162;-76
2023/06/02 07:20:12;;;;;;;0.73;0.73;;;30.70;46.30;;;;;;5054710;28;20166;-76
2023/06/02 07:22:39;;;;;;;1.03;1.03;;;30.30;48.00;;;;;;5054577;28;20232;-75
2023/06/02 07:25:05;;;;;;;1.17;1.17;;;29.90;47.40;;;;;;5054344;28;20420;-75
2023/06/02 07:27:32;;;;;;;1.33;1.23;;;29.60;47.80;;;;;;5054319;28;20430;-75
2023/06/02 07:29:59;;;;;;;0.80;0.80;;;29.30;48.30;;;;;;5054376;28;20472;-75
2023/06/02 07:32:25;;;;;;;1.00;0.77;;;29.10;48.40;;;;;;5054402;28;20444;-75
2023/06/02 07:34:50;;;;;;;4.30;1.20;;;29.40;49.90;;;;;;5054191;28;20504;-75
2023/06/02 07:37:16;;;;;;;1.50;1.20;;;29.90;50.20;;;;;;5053930;28;20416;-75
2023/06/02 07:39:42;;;;;;;0.80;0.80;;;30.80;48.50;;;;;;5054408;28;20174;-76
2023/06/02 07:42:07;;;;;;;0.90;0.77;;;31.60;46.20;;;;;;5054112;28;20176;-76
2023/06/02 07:44:33;;;;;;;1.40;1.30;;;32.70;46.00;;;;;;5054015;28;20201;-75
2023/06/02 07:46:59;;;;;;;0.80;0.80;;;34.20;43.90;;;;;;5053803;28;20174;-76
2023/06/02 07:49:25;;;;;;;0.83;0.83;;;35.50;41.60;;;;;;5053730;28;20268;-73
2023/06/02 07:51:51;;;;;;;2.20;1.37;;;36.80;39.00;;;;;;5054021;28;20554;-73
2023/06/02 07:54:16;;;;;;;2.60;1.90;;;37.70;37.50;;;;;;5053686;28;20189;-73
2023/06/02 07:56:43;;;;;;;1.20;1.10;;;38.30;36.20;;;;;;5053864;28;20197;-73
2023/06/02 07:59:11;;;;;;;1.10;1.00;;;38.50;35.40;;;;;;5053949;28;20412;-73
2023/06/02 08:01:38;;;;;;;1.30;1.03;;;38.20;35.80;;;;;;5053860;28;20224;-73
2023/06/02 08:04:03;;;;;;;1.30;1.20;;;37.80;34.70;;;;;;5053691;28;20782;-73
2023/06/02 08:06:29;;;;;;;1.53;1.43;;;36.60;35.50;;;;;;5053500;28;20427;-73
2023/06/02 08:08:55;;;;;;;1.57;1.10;;;35.80;36.60;;;;;;5053853;28;20261;-73
2023/06/02 08:11:22;;;;;;;1.93;1.30;;;35.40;37.50;;;;;;5053645;28;20254;-73
2023/06/02 08:13:48;;;;;;;2.07;1.20;;;35.60;37.40;;;;;;5053404;28;20222;-73
2023/06/02 08:16:14;;;;;;;1.60;1.47;;;35.50;36.40;;;;;;5053318;28;20471;-73
2023/06/02 08:18:40;;;;;;;1.40;1.30;;;34.90;36.90;;;;;;5053429;28;20174;-73
2023/06/02 08:21:05;;;;;;;1.43;1.20;;;34.40;37.50;;;;;;5052984;28;20182;-76
2023/06/02 08:23:32;;;;;;;1.37;1.27;;;34.40;38.10;;;;;;5052193;28;20289;-75
2023/06/02 08:25:58;;;;;;;1.50;1.37;;;34.60;37.90;;;;;;5053230;28;20690;-74
2023/06/02 08:28:25;;;;;;;2.70;1.33;;;34.40;38.40;;;;;;5051390;28;20420;-75
2023/06/02 08:30:51;;;;;;;1.50;1.40;;;33.90;39.70;;;;;;5052375;28;20582;-76
2023/06/02 08:33:18;;;;;;;1.93;1.20;;;33.90;38.30;;;;;;5053284;28;20435;-75
2023/06/02 08:35:46;;;;;;;1.77;1.60;;;34.50;37.70;;;;;;5053478;28;20408;-76
2023/06/02 08:38:16;;;;;;;0.77;0.77;;;35.50;37.90;;;;;;5053339;28;20405;-76
2023/06/02 08:40:45;;;;;;;1.50;1.30;;;36.40;36.00;;;;;;5053382;28;20876;-77
2023/06/02 08:43:13;;;;;;;4.77;0.80;;;36.30;36.80;;;;;;5052848;28;20431;-75
2023/06/02 08:45:43;;;;;;;1.60;1.50;;;36.00;35.50;;;;;;5051503;28;20440;-77
2023/06/02 08:48:17;;;;;;;1.10;1.10;;;35.00;36.80;;;;;;5053582;28;20404;-77
2023/06/02 08:50:48;;;;;;;1.83;1.73;;;33.20;39.30;;;;;;5052956;28;20433;-78
2023/06/02 08:53:18;;;;;;;2.30;1.70;;;31.60;41.10;;;;;;5053038;28;20454;-78
2023/06/02 08:55:47;;;;;;;1.30;1.20;;;30.30;43.60;;;;;;5052946;28;20432;-77
2023/06/02 08:58:13;;;;;;;2.30;2.03;;;30.30;44.20;;;;;;5053160;28;20436;-77
2023/06/02 09:00:38;;;;;;;2.40;1.07;;;31.50;43.10;;;;;;5052936;28;20912;-77
2023/06/02 09:03:05;;;;;;;1.60;1.50;;;32.40;47.40;;;;;;5052952;28;20209;-75
2023/06/02 09:05:34;;;;;;;2.30;1.27;;;32.40;41.60;;;;;;5052787;28;20174;-74
2023/06/02 09:08:13;;;;;;;1.40;1.30;;;31.40;42.10;;;;;;5053183;28;20409;-75
2023/06/02 09:10:40;;;;;;;1.33;0.90;;;30.60;44.30;;;;;;5052932;28;20474;-75
2023/06/02 09:13:09;;;;;;;1.40;1.30;;;31.20;49.30;;;;;;5052936;28;20412;-75
2023/06/02 09:15:53;;;;;;;1.67;1.40;;;31.70;44.30;;;;;;5052217;28;20417;-75
2023/06/02 09:18:19;;;;;;;1.30;0.90;;;32.60;41.10;;;;;;5052742;28;20768;-75
2023/06/02 09:20:48;;;;;;;3.70;1.57;;;33.00;41.40;;;;;;5051934;28;20421;-75
2023/06/02 09:23:14;;;;;;;1.20;0.90;;;33.00;40.20;;;;;;5050740;28;20190;-74
2023/06/02 09:25:40;;;;;;;1.63;1.53;;;31.60;41.70;;;;;;5052261;28;20978;-74
2023/06/02 09:28:08;;;;;;;2.40;1.60;;;30.30;43.20;;;;;;5052807;28;20642;-74
2023/06/02 09:30:33;;;;;;;1.47;1.27;;;28.90;45.20;;;;;;5052224;28;20416;-74
2023/06/02 09:33:07;;;;;;;1.73;1.30;;;27.80;47.40;;;;;;5055359;28;20416;-74
2023/06/02 09:35:34;;;;;;;1.37;1.23;;;27.10;48.50;;;;;;5053868;28;20178;-74
2023/06/02 09:38:00;;;;;;;1.40;1.30;;;27.50;49.70;;;;;;5052954;28;20405;-74
2023/06/02 09:40:29;;;;;;;1.93;1.20;;;28.50;48.10;;;;;;5056174;28;20399;-74
2023/06/02 09:42:55;;;;;;;1.90;1.80;;;29.00;45.90;;;;;;5055272;28;20748;-74
2023/06/02 09:45:21;;;;;;;1.40;1.23;;;28.80;46.70;;;;;;5055570;28;20403;-75
2023/06/02 09:47:47;;;;;;;1.70;1.60;;;28.90;46.20;;;;;;5055945;28;20166;-74
2023/06/02 09:50:33;;;;;;;1.57;1.47;;;29.10;46.00;;;;;;5055315;28;20190;-74
2023/06/02 09:53:06;;;;;;;1.53;1.43;;;29.30;45.60;;;;;;5054592;28;20495;-74
2023/06/02 09:55:36;;;;;;;0.80;0.80;;;29.80;46.30;;;;;;5053810;28;20409;-74
2023/06/02 09:58:04;;;;;;;1.20;1.10;;;30.70;42.70;;;;;;5052733;28;20403;-74
2023/06/02 10:00:31;;;;;;;2.03;1.63;;;31.60;41.60;;;;;;5054985;28;20405;-74
2023/06/02 10:02:58;;;;;;;1.50;1.40;;;32.10;45.90;;;;;;5052745;28;20421;-74
2023/06/02 10:05:24;;;;;;;1.83;1.27;;;32.40;40.00;;;;;;5052206;28;20419;-74
2023/06/02 10:08:02;;;;;;;1.80;1.27;;;32.60;37.50;;;;;;5055632;28;20423;-74
2023/06/02 10:10:49;;;;;;;1.50;1.37;;;32.60;38.20;;;;;;5052775;28;20412;-74
2023/06/02 10:13:34;;;;;;;1.13;1.10;;;32.50;37.90;;;;;;5053052;28;20503;-74
2023/06/02 10:16:18;;;;;;;0.77;0.77;;;32.70;38.00;;;;;;5055669;28;20848;-74
2023/06/02 10:19:07;;;;;;;1.30;1.20;;;32.60;39.00;;;;;;5054395;28;20908;-74
2023/06/02 10:21:32;;;;;;;1.30;1.20;;;32.50;36.80;;;;;;5054997;28;20765;-74
2023/06/02 10:24:30;;;;;;;1.10;1.00;;;32.50;37.40;;;;;;5055700;28;20519;-74
2023/06/02 10:27:20;;;;;;;1.10;1.10;;;32.40;38.50;;;;;;5054875;28;20193;-74
2023/06/02 10:29:46;;;;;;;1.40;1.13;;;32.20;38.00;;;;;;5055615;28;20428;-74
2023/06/02 10:32:33;;;;;;;1.57;1.10;;;32.00;37.80;;;;;;5055594;28;20400;-74
2023/06/02 10:35:00;;;;;;;1.80;1.20;;;32.00;39.90;;;;;;5055452;28;20972;-74
2023/06/02 10:37:26;;;;;;;1.57;1.47;;;32.00;39.30;;;;;;5055267;28;20885;-74
2023/06/02 10:39:56;;;;;;;2.03;1.60;;;31.70;37.40;;;;;;5055471;28;20778;-74
2023/06/02 10:42:26;;;;;;;2.20;1.53;;;31.20;42.20;;;;;;5054185;28;20405;-75
2023/06/02 10:45:13;;;;;;;1.30;1.10;;;31.10;41.20;;;;;;5053574;28;20523;-74
2023/06/02 10:47:38;;;;;;;1.23;1.20;;;30.40;39.30;;;;;;5053606;28;20412;-74
2023/06/02 10:50:07;;;;;;;1.83;1.10;;;30.00;44.40;;;;;;5055095;28;20464;-73
2023/06/02 10:52:34;;;;;;;1.13;1.03;;;29.40;44.90;;;;;;5054876;28;20824;-74
2023/06/02 10:55:24;;;;;;;2.30;1.07;;;28.80;45.20;;;;;;5054315;28;20820;-74
2023/06/02 10:58:05;;;;;;;1.60;1.50;;;28.20;47.30;;;;;;5055159;28;20458;-74
2023/06/02 11:00:36;;;;;;;1.37;1.27;;;27.70;49.00;;;;;;5054889;28;20746;-74
2023/06/02 11:03:02;;;;;;;2.40;1.77;;;27.70;54.90;;;;;;5054964;28;20462;-74
2023/06/02 11:05:30;;;;;;;1.57;1.43;;;27.80;47.60;;;;;;5054633;28;20436;-74
2023/06/02 11:08:11;;;;;;;1.20;1.10;;;27.50;47.10;;;;;;5053776;28;20925;-74
2023/06/02 11:10:50;;;;;;;1.50;1.17;;;27.30;49.10;;;;;;5054457;28;20412;-74
2023/06/02 11:13:17;;;;;;;2.00;1.30;;;27.10;49.30;;;;;;5053382;28;20424;-74
2023/06/02 11:15:56;;;;;;;3.60;1.77;;;26.90;51.00;;;;;;5053638;28;20411;-74
2023/06/02 11:18:22;;;;;;;1.63;1.50;;;27.20;53.10;;;;;;5054571;28;20405;-74
2023/06/02 11:20:50;;;;;;;1.07;0.97;;;27.60;52.40;;;;;;5054590;28;20401;-74
2023/06/02 11:23:17;;;;;;;1.50;1.40;;;28.20;49.70;;;;;;5054407;28;20182;-74
2023/06/02 11:25:43;;;;;;;1.47;1.37;;;28.70;49.60;;;;;;5054401;28;20401;-74
2023/06/02 11:28:21;;;;;;;1.70;1.50;;;29.00;48.60;;;;;;5054293;28;20405;-74
2023/06/02 11:30:47;;;;;;;1.67;0.97;;;29.20;47.40;;;;;;5054488;28;20401;-74
2023/06/02 11:33:13;;;;;;;1.53;1.40;;;29.20;45.80;;;;;;5054370;28;20428;-74
2023/06/02 11:35:46;;;;;;;1.73;1.60;;;28.80;47.30;;;;;;5054032;28;20816;-74
2023/06/02 11:38:16;;;;;;;1.87;1.30;;;28.30;46.60;;;;;;5054328;28;20408;-74
2023/06/02 11:40:42;;;;;;;1.43;1.33;;;28.20;49.00;;;;;;5054093;28;20405;-74
2023/06/02 11:43:07;;;;;;;1.67;1.57;;;27.10;56.20;;;;;;5053975;28;20469;-74
2023/06/02 11:45:34;;;;;;;1.00;0.87;;;28.00;49.00;;;;;;5054027;28;20195;-74
2023/06/02 11:48:07;;;;;;;1.43;1.30;;;28.00;47.30;;;;;;5053991;28;20166;-74
2023/06/02 11:50:33;;;;;;;2.90;1.60;;;27.90;47.00;;;;;;5054014;28;20456;-74
2023/06/02 11:53:00;;;;;;;1.60;1.27;;;27.60;46.10;;;;;;5053654;28;20405;-74
2023/06/02 11:55:31;;;;;;;1.53;1.43;;;27.60;47.90;;;;;;5053304;28;20463;-74
2023/06/02 11:58:39;;;;;;;2.20;1.87;;;27.90;49.90;;;;;;5054062;28;20409;-74
2023/06/02 12:01:08;;;;;;;1.47;0.90;;;28.20;47.80;;;;;;5051782;28;20515;-74
2023/06/02 12:03:35;;;;;;;1.47;1.37;;;28.10;47.30;;;;;;5053430;28;20441;-74
2023/06/02 12:06:12;;;;;;;1.17;1.07;;;27.90;45.60;;;;;;5053466;28;20448;-74
2023/06/02 12:08:38;;;;;;;1.73;1.63;;;27.90;49.30;;;;;;5053645;28;20409;-74
2023/06/02 12:11:16;;;;;;;1.20;1.10;;;27.50;49.10;;;;;;5053709;28;20412;-74
2023/06/02 12:13:54;;;;;;;1.37;1.27;;;27.30;49.30;;;;;;5053739;28;20205;-74
2023/06/02 12:16:21;;;;;;;2.87;1.87;;;26.90;49.70;;;;;;5052451;28;20371;-74
2023/06/02 12:18:47;;;;;;;1.47;1.37;;;26.70;51.30;;;;;;5053324;28;20419;-74
2023/06/02 12:21:26;;;;;;;0.97;0.80;;;26.60;52.70;;;;;;5053708;28;20397;-75
2023/06/02 12:23:56;;;;;;;1.67;1.50;;;26.40;51.80;;;;;;5053449;28;20909;-75
2023/06/02 12:26:24;;;;;;;1.23;1.23;;;26.00;51.30;;;;;;5053073;28;20473;-72
2023/06/02 12:28:50;;;;;;;1.57;1.30;;;25.70;52.10;;;;;;5050546;28;20385;-74
2023/06/02 12:31:19;;;;;;;1.60;1.50;;;25.70;53.30;;;;;;5053325;28;20424;-75
2023/06/02 12:33:45;;;;;;;1.50;1.33;;;25.70;53.50;;;;;;5052082;28;20492;-75
2023/06/02 12:36:12;;;;;;;1.97;1.37;;;25.70;53.80;;;;;;5049765;28;20925;-75
2023/06/02 12:38:38;;;;;;;1.47;1.37;;;25.70;52.80;;;;;;5053166;28;20451;-77
2023/06/02 12:41:10;;;;;;;1.70;1.30;;;25.80;53.30;;;;;;5051370;28;20416;-74
2023/06/02 12:43:40;;;;;;;1.50;1.37;;;25.80;52.20;;;;;;5052730;28;20436;-76
2023/06/02 12:46:07;;;;;;;1.20;1.20;;;25.80;53.30;;;;;;5052747;28;20412;-77
2023/06/02 12:48:32;;;;;;;2.50;1.23;;;25.70;52.80;;;;;;5052212;28;20456;-77
2023/06/02 12:50:58;;;;;;;1.30;1.20;;;25.80;53.60;;;;;;5051893;28;20871;-76